createdAt,value
2022-10-06T00:01:56.453Z,6.63
2022-10-06T00:06:59.038Z,4.65
2022-10-06T00:12:03.190Z,3.20
2022-10-06T00:17:06.132Z,5.38
2022-10-06T00:22:08.744Z,3.33
2022-10-06T00:27:12.697Z,5.55
2022-10-06T00:32:15.254Z,4.47
2022-10-06T00:37:17.885Z,3.58
2022-10-06T00:42:27.185Z,4.82
2022-10-06T00:47:32.577Z,5.72
2022-10-06T00:52:36.164Z,3.97
2022-10-06T00:57:41.745Z,5.47
2022-10-06T01:02:49.425Z,4.30
2022-10-06T01:07:52.356Z,2.72
2022-10-06T01:12:57.157Z,2.40
2022-10-06T01:18:05.308Z,4.10
2022-10-06T01:23:10.215Z,2.90
2022-10-06T01:28:14.705Z,3.25
2022-10-06T01:38:21.994Z,4.45
2022-10-06T01:43:24.879Z,3.38
2022-10-06T01:48:28.384Z,5.35
2022-10-06T01:53:32.432Z,4.10
2022-10-06T01:58:35.023Z,3.47
2022-10-06T02:03:38.326Z,5.85
2022-10-06T02:08:42.255Z,4.00
2022-10-06T02:13:44.876Z,4.53
2022-10-06T02:18:47.829Z,4.32
2022-10-06T02:23:51.898Z,4.97
2022-10-06T02:28:54.730Z,8.30
2022-10-06T02:33:57.439Z,4.43
2022-10-06T02:39:01.372Z,4.05
2022-10-06T02:44:03.950Z,4.43
2022-10-06T02:49:06.515Z,3.33
2022-10-06T02:54:10.550Z,4.00
2022-10-06T02:59:13.797Z,5.07
2022-10-06T03:04:16.379Z,4.15
2022-10-06T03:09:20.448Z,4.82
2022-10-06T03:14:23.083Z,3.20
2022-10-06T03:19:26.346Z,2.95
2022-10-06T03:24:30.484Z,2.72
2022-10-06T03:29:35.088Z,6.43
2022-10-06T03:34:37.755Z,3.25
2022-10-06T03:39:41.990Z,4.63
2022-10-06T03:44:44.591Z,2.88
2022-10-06T03:49:47.145Z,3.53
2022-10-06T03:54:51.228Z,2.58
2022-10-06T03:59:53.827Z,3.60
2022-10-06T04:04:56.500Z,2.10
2022-10-06T04:10:00.500Z,3.05
2022-10-06T04:15:03.079Z,3.30
2022-10-06T04:20:06.241Z,2.20
2022-10-06T04:25:10.940Z,3.40
2022-10-06T04:30:14.416Z,1.67
2022-10-06T04:35:17.275Z,0.70
2022-10-06T04:40:21.215Z,0.13
2022-10-06T04:45:23.971Z,0.95
2022-10-06T04:50:26.571Z,0.95
2022-10-06T04:55:30.503Z,2.13
2022-10-06T05:00:33.936Z,0.70
2022-10-06T05:05:36.607Z,1.73
2022-10-06T05:10:42.097Z,0.93
2022-10-06T05:20:56.406Z,1.92
2022-10-06T05:26:01.554Z,0.63
2022-10-06T05:31:06.507Z,2.42
2022-10-06T05:36:11.813Z,2.28
2022-10-06T05:41:17.461Z,1.40
2022-10-06T05:46:23.826Z,1.45
2022-10-06T05:51:30.926Z,1.20
2022-10-06T05:56:36.666Z,2.95
2022-10-06T06:01:41.010Z,3.45
2022-10-06T06:11:52.591Z,0.77
2022-10-06T06:16:55.253Z,2.78
2022-10-06T06:21:58.118Z,3.97
2022-10-06T06:27:02.102Z,1.10
2022-10-06T06:32:04.745Z,2.28
2022-10-06T06:37:11.595Z,2.13
2022-10-06T06:42:19.740Z,4.88
2022-10-06T06:47:24.477Z,4.38
2022-10-06T06:52:29.280Z,1.67
2022-10-06T06:57:33.250Z,2.70
2022-10-06T07:02:35.827Z,1.67
2022-10-06T07:07:39.752Z,1.13
2022-10-06T07:12:45.403Z,2.30
2022-10-06T07:18:06.030Z,3.42
2022-10-06T07:23:34.451Z,2.75
2022-10-06T07:28:38.498Z,4.30
2022-10-06T07:33:41.848Z,6.40
2022-10-06T07:38:44.402Z,7.20
2022-10-06T07:43:48.359Z,5.90
2022-10-06T07:48:50.964Z,5.97
2022-10-06T07:53:53.780Z,7.90
2022-10-06T07:58:58.977Z,5.47
2022-10-06T08:04:02.462Z,3.45
2022-10-06T08:09:07.756Z,7.53
2022-10-06T08:14:12.712Z,6.80
2022-10-06T08:19:17.166Z,7.00
2022-10-06T08:29:23.789Z,3.88
2022-10-06T08:34:28.966Z,7.72
2022-10-06T08:39:31.798Z,8.00
2022-10-06T08:44:41.798Z,5.28
2022-10-06T08:49:46.951Z,8.55
2022-10-06T08:54:58.365Z,5.38
2022-10-06T09:00:03.418Z,6.53
2022-10-06T09:05:07.865Z,3.53
2022-10-06T09:15:39.527Z,8.30
2022-10-06T09:20:48.266Z,4.00
2022-10-06T09:25:51.043Z,10.90
2022-10-06T09:30:55.568Z,8.32
2022-10-06T09:36:09.475Z,6.90
2022-10-06T09:41:13.451Z,6.95
2022-10-06T09:46:22.821Z,6.68
2022-10-06T09:51:26.089Z,3.72
2022-10-06T09:56:28.731Z,6.10
2022-10-06T10:01:32.803Z,4.43
2022-10-06T10:06:36.431Z,5.53
2022-10-06T10:11:56.751Z,7.03
2022-10-06T10:17:08.995Z,8.68
2022-10-06T10:22:22.583Z,5.93
2022-10-06T10:27:32.560Z,5.65
2022-10-06T10:32:46.078Z,9.60
2022-10-06T10:37:53.288Z,7.28
2022-10-06T10:43:04.471Z,8.15
2022-10-06T10:48:15.743Z,4.78
2022-10-06T10:53:21.921Z,7.00
2022-10-06T10:58:31.200Z,6.28
2022-10-06T11:03:35.274Z,6.82
2022-10-06T11:08:49.947Z,3.88
2022-10-06T11:13:57.492Z,4.93
2022-10-06T11:19:16.644Z,6.32
2022-10-06T11:24:31.020Z,6.35
2022-10-06T11:29:43.134Z,6.50
2022-10-06T11:34:49.437Z,4.27
2022-10-06T11:39:59.443Z,7.18
2022-10-06T11:45:05.098Z,5.93
2022-10-06T11:50:37.754Z,4.72
2022-10-06T11:55:40.529Z,2.97
2022-10-06T12:00:50.737Z,5.13
2022-10-06T12:05:56.527Z,5.68
2022-10-06T12:10:59.746Z,4.70
2022-10-06T12:22:02.011Z,4.00
2022-10-06T12:27:38.946Z,3.40
2022-10-06T12:32:49.828Z,5.57
2022-10-06T12:37:55.058Z,4.40
2022-10-06T12:43:18.505Z,3.28
2022-10-06T12:48:25.772Z,5.38
2022-10-06T12:53:33.759Z,3.45
2022-10-06T12:58:36.579Z,4.90
2022-10-06T13:03:39.773Z,4.93
2022-10-06T13:08:45.334Z,3.88
2022-10-06T13:13:49.036Z,3.95
2022-10-06T13:18:57.287Z,3.72
2022-10-06T13:24:01.321Z,6.60
2022-10-06T13:29:05.251Z,4.35
2022-10-06T13:34:11.720Z,5.20
2022-10-06T13:39:17.670Z,2.08
2022-10-06T13:44:39.573Z,2.20
2022-10-06T13:49:48.312Z,6.70
2022-10-06T13:54:56.214Z,3.25
2022-10-06T14:00:13.803Z,4.10
2022-10-06T14:05:23.272Z,6.20
2022-10-06T14:10:32.389Z,2.30
2022-10-06T14:15:47.101Z,4.05
2022-10-06T14:20:52.033Z,3.83
2022-10-06T14:25:56.671Z,3.00
2022-10-06T14:31:00.357Z,4.38
2022-10-06T14:36:04.319Z,3.78
2022-10-06T14:41:09.916Z,4.03
2022-10-06T14:46:14.866Z,2.05
2022-10-06T14:51:19.382Z,4.32
2022-10-06T14:56:26.731Z,4.57
2022-10-06T15:01:30.558Z,1.77
2022-10-06T15:06:52.417Z,3.33
2022-10-06T15:11:56.839Z,22.23
2022-10-06T15:17:00.586Z,5.15
2022-10-06T15:27:27.728Z,7.40
2022-10-06T15:32:30.737Z,3.00
2022-10-06T15:37:38.697Z,11.93
2022-10-06T15:42:42.768Z,3.80
2022-10-06T15:52:49.218Z,1.37
2022-10-06T15:57:55.207Z,3.78
2022-10-06T16:02:57.948Z,4.03
2022-10-06T16:08:00.812Z,1.95
2022-10-06T16:13:05.588Z,3.65
2022-10-06T16:18:08.235Z,2.17
2022-10-06T16:23:11.183Z,7.60
2022-10-06T16:28:15.583Z,8.43
2022-10-06T16:33:21.106Z,8.70
2022-10-06T16:38:24.391Z,11.13
2022-10-06T16:43:33.549Z,3.72
2022-10-06T16:48:38.209Z,4.78
2022-10-06T16:53:46.122Z,4.63
2022-10-06T16:58:53.484Z,7.22
2022-10-06T17:03:59.589Z,4.93
2022-10-06T17:09:02.960Z,10.10
2022-10-06T17:14:07.187Z,7.28
2022-10-06T17:19:14.805Z,4.97
2022-10-06T17:24:20.641Z,6.72
2022-10-06T17:29:30.372Z,7.90
2022-10-06T17:34:39.827Z,6.60
2022-10-06T17:39:46.978Z,5.47
2022-10-06T17:44:53.001Z,10.02
2022-10-06T17:50:00.512Z,9.40
2022-10-06T17:55:06.251Z,6.18
2022-10-06T18:00:12.145Z,10.65
2022-10-06T18:05:15.470Z,8.88
2022-10-06T18:10:35.916Z,12.02
2022-10-06T18:15:40.782Z,10.93
2022-10-06T18:20:43.975Z,10.73
2022-10-06T18:25:46.806Z,14.13
2022-10-06T18:30:51.884Z,11.60
2022-10-06T18:36:14.705Z,11.23
2022-10-06T18:41:20.448Z,14.27
2022-10-06T18:46:44.590Z,11.77
2022-10-06T18:51:48.896Z,12.77
2022-10-06T18:56:51.747Z,8.60
2022-10-06T19:01:57.854Z,9.15
2022-10-06T19:07:01.019Z,10.45
2022-10-06T19:12:04.044Z,13.93
2022-10-06T19:17:14.189Z,10.77
2022-10-06T19:22:16.857Z,10.55
2022-10-06T19:27:26.188Z,9.90
2022-10-06T19:32:33.461Z,9.40
2022-10-06T19:37:36.059Z,11.88
2022-10-06T19:42:51.179Z,11.90
2022-10-06T19:47:57.426Z,10.27
2022-10-06T19:53:00.350Z,7.53
2022-10-06T19:58:03.459Z,16.60
2022-10-06T20:03:08.639Z,12.85
2022-10-06T20:08:11.149Z,12.07
2022-10-06T20:13:13.769Z,13.27
2022-10-06T20:18:17.984Z,12.55
2022-10-06T20:23:20.811Z,14.32
2022-10-06T20:28:23.495Z,11.10
2022-10-06T20:33:32.836Z,12.18
2022-10-06T20:38:53.291Z,9.95
2022-10-06T20:43:57.163Z,15.07
2022-10-06T20:49:03.476Z,12.55
2022-10-06T20:54:07.202Z,12.55
2022-10-06T20:59:13.555Z,11.40
2022-10-06T21:04:18.389Z,11.63
2022-10-06T21:09:21.424Z,14.20
2022-10-06T21:14:24.181Z,12.43
2022-10-06T21:19:30.167Z,9.65
2022-10-06T21:24:33.275Z,11.13
2022-10-06T21:29:36.473Z,14.32
2022-10-06T21:34:40.789Z,11.48
2022-10-06T21:39:43.713Z,12.50
2022-10-06T21:44:46.709Z,14.35
2022-10-06T21:49:50.832Z,10.75
2022-10-06T21:54:53.805Z,14.30
2022-10-06T21:59:56.552Z,11.82
2022-10-06T22:05:00.740Z,12.45
2022-10-06T22:10:03.625Z,13.77
2022-10-06T22:15:07.613Z,15.57
2022-10-06T22:20:11.966Z,13.82
2022-10-06T22:25:14.847Z,9.75
2022-10-06T22:30:17.635Z,10.05
2022-10-06T22:35:21.652Z,8.43
2022-10-06T22:40:24.483Z,8.23
2022-10-06T22:45:27.413Z,14.43
2022-10-06T22:50:31.745Z,8.02
2022-10-06T22:55:34.834Z,7.68
2022-10-06T23:00:37.969Z,7.95
2022-10-06T23:05:42.189Z,8.27
2022-10-06T23:10:45.223Z,8.52
2022-10-06T23:15:48.231Z,8.65
2022-10-06T23:20:52.581Z,11.50
2022-10-06T23:25:55.533Z,11.23
2022-10-06T23:30:58.329Z,9.90
2022-10-06T23:36:04.408Z,9.25
2022-10-06T23:41:08.884Z,9.52
2022-10-06T23:46:12.196Z,6.88
2022-10-06T23:51:17.084Z,7.60
2022-10-06T23:56:20.889Z,5.55
